Time,TemperatureF,DewpointF,PressureIn,WindDirection,WindDirectionDegrees,WindSpeedMPH,WindSpeedGustMPH,Humidity,HourlyPrecipIn,Conditions,Clouds,dailyrainin,SoftwareType,DateUTC
2013-01-25 00:07:00,22.8,7.0,30.41,NW,315,10.0,-999.0,51,-99.99,,,0.00,weatherlink.com 1.10,2013-01-25 05:07:00,
2013-01-25 00:22:00,22.6,7.0,30.41,NW,312,12.0,-999.0,52,-99.99,,,0.00,weatherlink.com 1.10,2013-01-25 05:22:00,
2013-01-25 00:37:00,22.5,7.0,30.41,NW,304,8.0,-999.0,52,-99.99,,,0.00,weatherlink.com 1.10,2013-01-25 05:37:00,
2013-01-25 00:52:00,22.4,6.0,30.41,NW,324,15.0,-999.0,50,-99.99,,,0.00,weatherlink.com 1.10,2013-01-25 05:52:00,
2013-01-25 01:07:00,22.5,7.0,30.41,NW,307,10.0,-999.0,52,-99.99,,,0.00,weatherlink.com 1.10,2013-01-25 06:07:00,
2013-01-25 01:38:00,22.1,7.0,30.41,WNW,301,11.0,-999.0,53,-99.99,,,0.00,weatherlink.com 1.10,2013-01-25 06:38:00,
2013-01-25 01:53:00,22.0,7.0,30.41,NW,313,9.0,-999.0,53,-99.99,,,0.00,weatherlink.com 1.10,2013-01-25 06:53:00,
2013-01-25 02:08:00,21.8,7.0,30.42,NW,311,6.0,-999.0,53,-99.99,,,0.00,weatherlink.com 1.10,2013-01-25 07:08:00,
2013-01-25 02:23:00,21.6,7.0,30.42,NNW,335,10.0,-999.0,54,-99.99,,,0.00,weatherlink.com 1.10,2013-01-25 07:23:00,
2013-01-25 02:38:00,21.2,8.0,30.42,NNW,329,5.0,-999.0,56,-99.99,,,0.00,weatherlink.com 1.10,2013-01-25 07:38:00,
2013-01-25 02:53:00,20.9,7.0,30.42,NW,304,7.0,-999.0,55,-99.99,,,0.00,weatherlink.com 1.10,2013-01-25 07:53:00,
2013-01-25 03:08:00,20.6,7.0,30.42,NW,311,11.0,-999.0,55,-99.99,,,0.00,weatherlink.com 1.10,2013-01-25 08:08:00,
2013-01-25 03:24:00,20.1,7.0,30.41,NW,304,7.0,-999.0,56,-99.99,,,0.00,weatherlink.com 1.10,2013-01-25 08:24:00,
2013-01-25 03:38:00,19.8,6.0,30.41,NNW,328,11.0,-999.0,56,-99.99,,,0.00,weatherlink.com 1.10,2013-01-25 08:38:00,
2013-01-25 03:53:00,19.5,6.0,30.41,NW,311,7.0,-999.0,57,-99.99,,,0.00,weatherlink.com 1.10,2013-01-25 08:53:00,
2013-01-25 04:08:00,19.2,5.0,30.41,NW,316,13.0,-999.0,55,-99.99,,,0.00,weatherlink.com 1.10,2013-01-25 09:08:00,
2013-01-25 04:24:00,19.2,5.0,30.41,NW,314,11.0,-999.0,53,-99.99,,,0.00,weatherlink.com 1.10,2013-01-25 09:24:00,
2013-01-25 04:39:00,19.0,5.0,30.41,NW,304,10.0,-999.0,54,-99.99,,,0.00,weatherlink.com 1.10,2013-01-25 09:39:00,
2013-01-25 04:54:00,18.9,4.0,30.41,NW,323,9.0,-999.0,53,-99.99,,,0.00,weatherlink.com 1.10,2013-01-25 09:54:00,
2013-01-25 05:09:00,18.7,4.0,30.41,NNW,345,10.0,-999.0,53,-99.99,,,0.00,weatherlink.com 1.10,2013-01-25 10:09:00,
2013-01-25 05:24:00,18.6,5.0,30.41,NNW,340,9.0,-999.0,55,-99.99,,,0.00,weatherlink.com 1.10,2013-01-25 10:24:00,
2013-01-25 05:39:00,18.7,5.0,30.41,NNW,338,10.0,-999.0,55,-99.99,,,0.00,weatherlink.com 1.10,2013-01-25 10:39:00,
2013-01-25 05:54:00,18.7,4.0,30.41,NNW,333,11.0,-999.0,53,-99.99,,,0.00,weatherlink.com 1.10,2013-01-25 10:54:00,
2013-01-25 06:09:00,18.5,4.0,30.41,North,359,6.0,-999.0,54,-99.99,,,0.00,weatherlink.com 1.10,2013-01-25 11:09:00,
2013-01-25 06:24:00,18.2,4.0,30.42,NNW,335,10.0,-999.0,53,-99.99,,,0.00,weatherlink.com 1.10,2013-01-25 11:24:00,
2013-01-25 06:39:00,18.1,3.0,30.42,NNW,341,9.0,-999.0,53,-99.99,,,0.00,weatherlink.com 1.10,2013-01-25 11:39:00,
2013-01-25 06:55:00,17.8,4.0,30.41,WNW,303,8.0,-999.0,55,-99.99,,,0.00,weatherlink.com 1.10,2013-01-25 11:55:00,
2013-01-25 07:10:00,17.6,3.0,30.42,NW,324,10.0,-999.0,54,-99.99,,,0.00,weatherlink.com 1.10,2013-01-25 12:10:00,
2013-01-25 07:25:00,17.7,4.0,30.41,NW,310,7.0,-999.0,54,-99.99,,,0.00,weatherlink.com 1.10,2013-01-25 12:25:00,
2013-01-25 07:40:00,17.7,4.0,30.41,WNW,289,10.0,-999.0,55,-99.99,,,0.00,weatherlink.com 1.10,2013-01-25 12:40:00,
2013-01-25 07:55:00,18.2,5.0,30.40,WNW,296,6.0,-999.0,56,-99.99,,,0.00,weatherlink.com 1.10,2013-01-25 12:55:00,
2013-01-25 08:10:00,18.6,6.0,30.40,WNW,296,6.0,-999.0,58,-99.99,,,0.00,weatherlink.com 1.10,2013-01-25 13:10:00,
2013-01-25 08:25:00,19.0,6.0,30.39,NW,309,5.0,-999.0,57,-99.99,,,0.00,weatherlink.com 1.10,2013-01-25 13:25:00,
2013-01-25 08:40:00,19.1,5.0,30.39,WNW,300,10.0,-999.0,55,-99.99,,,0.00,weatherlink.com 1.10,2013-01-25 13:40:00,
2013-01-25 08:55:00,19.4,5.0,30.41,WNW,300,7.0,-999.0,54,-99.99,,,0.00,weatherlink.com 1.10,2013-01-25 13:55:00,
2013-01-25 09:10:00,19.4,4.0,30.40,NW,311,6.0,-999.0,52,-99.99,,,0.00,weatherlink.com 1.10,2013-01-25 14:10:00,
2013-01-25 09:25:00,19.5,4.0,30.39,NW,304,3.0,-999.0,52,-99.99,,,0.00,weatherlink.com 1.10,2013-01-25 14:25:00,
2013-01-25 09:40:00,20.2,5.0,30.39,NW,312,6.0,-999.0,53,-99.99,,,0.00,weatherlink.com 1.10,2013-01-25 14:40:00,
2013-01-25 09:59:00,20.4,5.0,30.38,WNW,302,5.0,-999.0,52,-99.99,,,0.00,weatherlink.com 1.10,2013-01-25 14:59:00,
2013-01-25 10:11:00,20.8,5.0,30.39,NW,309,6.0,-999.0,51,-99.99,,,0.00,weatherlink.com 1.10,2013-01-25 15:11:00,
2013-01-25 10:26:00,21.0,6.0,30.38,WNW,293,2.0,-999.0,52,-99.99,,,0.00,weatherlink.com 1.10,2013-01-25 15:26:00,
2013-01-25 10:41:00,21.5,6.0,30.36,WNW,297,2.0,-999.0,51,-99.99,,,0.00,weatherlink.com 1.10,2013-01-25 15:41:00,
2013-01-25 10:56:00,21.8,7.0,30.36,WNW,297,0.0,-999.0,52,-99.99,,,0.00,weatherlink.com 1.10,2013-01-25 15:56:00,
2013-01-25 11:11:00,22.2,6.0,30.34,WNW,297,0.0,-999.0,50,-99.99,,,0.00,weatherlink.com 1.10,2013-01-25 16:11:00,
2013-01-25 11:26:00,22.8,7.0,30.33,WNW,295,3.0,-999.0,51,-99.99,,,0.00,weatherlink.com 1.10,2013-01-25 16:26:00,
2013-01-25 11:41:00,23.0,7.0,30.32,WNW,295,2.0,-999.0,51,-99.99,,,0.00,weatherlink.com 1.10,2013-01-25 16:41:00,
2013-01-25 11:57:00,23.1,8.0,30.31,WNW,283,2.0,-999.0,52,-99.99,,,0.00,weatherlink.com 1.10,2013-01-25 16:57:00,
2013-01-25 12:12:00,23.9,8.0,30.30,WSW,248,1.0,-999.0,52,-99.99,,,0.00,weatherlink.com 1.10,2013-01-25 17:12:00,
2013-01-25 12:26:00,24.1,10.0,30.30,SW,225,2.0,-999.0,54,-99.99,,,0.00,weatherlink.com 1.10,2013-01-25 17:26:00,
2013-01-25 12:42:00,24.3,10.0,30.29,WSW,245,3.0,-999.0,55,-99.99,,,0.00,weatherlink.com 1.10,2013-01-25 17:42:00,
2013-01-25 12:57:00,24.6,11.0,30.28,SW,236,6.0,-999.0,56,-99.99,,,0.00,weatherlink.com 1.10,2013-01-25 17:57:00,
2013-01-25 13:12:00,24.5,12.0,30.29,West,280,6.0,-999.0,58,-99.99,,,0.00,weatherlink.com 1.10,2013-01-25 18:12:00,
2013-01-25 13:27:00,24.7,12.0,30.28,WSW,243,5.0,-999.0,58,-99.99,,,0.00,weatherlink.com 1.10,2013-01-25 18:27:00,
2013-01-25 13:42:00,24.6,12.0,30.25,WSW,253,6.0,-999.0,60,-99.99,,,0.00,weatherlink.com 1.10,2013-01-25 18:42:00,
2013-01-25 13:57:00,24.5,12.0,30.25,West,266,10.0,-999.0,60,-99.99,,,0.00,weatherlink.com 1.10,2013-01-25 18:57:00,
2013-01-25 14:12:00,24.7,11.0,30.25,SW,231,9.0,-999.0,55,-99.99,,,0.00,weatherlink.com 1.10,2013-01-25 19:12:00,
2013-01-25 14:27:00,24.3,9.0,30.23,SW,227,1.0,-999.0,52,-99.99,,,0.00,weatherlink.com 1.10,2013-01-25 19:27:00,
2013-01-25 14:42:00,24.4,8.0,30.22,SW,226,9.0,-999.0,50,-99.99,,,0.00,weatherlink.com 1.10,2013-01-25 19:42:00,
2013-01-25 14:57:00,24.4,9.0,30.21,SW,230,1.0,-999.0,53,-99.99,,,0.00,weatherlink.com 1.10,2013-01-25 19:57:00,
2013-01-25 15:12:00,24.5,9.0,30.18,SW,224,4.0,-999.0,52,-99.99,,,0.00,weatherlink.com 1.10,2013-01-25 20:12:00,
2013-01-25 15:27:00,24.9,10.0,30.18,WSW,245,3.0,-999.0,54,-99.99,,,0.00,weatherlink.com 1.10,2013-01-25 20:27:00,
2013-01-25 15:42:00,24.4,14.0,30.18,WSW,246,6.0,-999.0,66,-99.99,,,0.00,weatherlink.com 1.10,2013-01-25 20:42:00,
2013-01-25 15:58:00,23.7,15.0,30.17,SW,224,5.0,-999.0,68,-99.99,,,0.00,weatherlink.com 1.10,2013-01-25 20:58:00,
2013-01-25 16:13:00,23.9,14.0,30.17,WSW,243,2.0,-999.0,66,-99.99,,,0.00,weatherlink.com 1.10,2013-01-25 21:13:00,
2013-01-25 16:28:00,24.0,14.0,30.16,WSW,243,1.0,-999.0,65,-99.99,,,0.00,weatherlink.com 1.10,2013-01-25 21:28:00,
2013-01-25 16:43:00,24.0,14.0,30.15,WSW,243,3.0,-999.0,65,-99.99,,,0.00,weatherlink.com 1.10,2013-01-25 21:43:00,
2013-01-25 16:58:00,23.9,14.0,30.14,WSW,243,5.0,-999.0,67,-99.99,,,0.00,weatherlink.com 1.10,2013-01-25 21:58:00,
2013-01-25 17:13:00,23.4,16.0,30.14,West,270,5.0,-999.0,72,-99.99,,,0.00,weatherlink.com 1.10,2013-01-25 22:13:00,
2013-01-25 17:28:00,22.8,17.0,30.13,West,271,4.0,-999.0,77,-99.99,,,0.00,weatherlink.com 1.10,2013-01-25 22:28:00,
2013-01-25 17:43:00,22.3,18.0,30.13,West,270,4.0,-999.0,82,-99.99,,,0.00,weatherlink.com 1.10,2013-01-25 22:43:00,
2013-01-25 17:59:00,22.2,18.0,30.12,West,272,3.0,-999.0,84,-99.99,,,0.00,weatherlink.com 1.10,2013-01-25 22:59:00,
2013-01-25 18:14:00,22.3,19.0,30.11,West,263,4.0,-999.0,87,-99.99,,,0.00,weatherlink.com 1.10,2013-01-25 23:14:00,
2013-01-25 18:29:00,22.1,19.0,30.10,West,263,2.0,-999.0,88,-99.99,,,0.00,weatherlink.com 1.10,2013-01-25 23:29:00,
2013-01-25 18:44:00,22.0,19.0,30.09,West,263,2.0,-999.0,89,-99.99,,,0.00,weatherlink.com 1.10,2013-01-25 23:44:00,
2013-01-25 18:59:00,22.2,20.0,30.09,West,263,0.0,-999.0,89,-99.99,,,0.00,weatherlink.com 1.10,2013-01-25 23:59:00,
2013-01-25 19:14:00,22.4,20.0,30.08,West,263,0.0,-999.0,90,-99.99,,,0.00,weatherlink.com 1.10,2013-01-26 00:14:00,
2013-01-25 19:29:00,22.6,20.0,30.08,West,263,3.0,-999.0,90,-99.99,,,0.00,weatherlink.com 1.10,2013-01-26 00:29:00,
2013-01-25 19:44:00,22.6,20.0,30.08,West,263,2.0,-999.0,90,-99.99,,,0.00,weatherlink.com 1.10,2013-01-26 00:44:00,
2013-01-25 19:59:00,22.8,20.0,30.07,West,263,2.0,-999.0,90,-99.99,,,0.00,weatherlink.com 1.10,2013-01-26 00:59:00,
2013-01-25 20:14:00,23.0,21.0,30.06,West,263,3.0,-999.0,91,-99.99,,,0.00,weatherlink.com 1.10,2013-01-26 01:14:00,
2013-01-25 20:29:00,23.1,21.0,30.05,West,263,5.0,-999.0,91,-99.99,,,0.00,weatherlink.com 1.10,2013-01-26 01:29:00,
2013-01-25 20:44:00,23.1,21.0,30.05,West,269,4.0,-999.0,91,-99.99,,,0.00,weatherlink.com 1.10,2013-01-26 01:44:00,
2013-01-25 21:00:00,23.0,21.0,30.05,West,269,2.0,-999.0,91,-99.99,,,0.00,weatherlink.com 1.10,2013-01-26 02:00:00,
2013-01-25 21:14:00,23.1,21.0,30.04,West,269,2.0,-999.0,91,-99.99,,,0.00,weatherlink.com 1.10,2013-01-26 02:14:00,
2013-01-25 21:29:00,23.0,21.0,30.04,West,265,3.0,-999.0,91,-99.99,,,0.00,weatherlink.com 1.10,2013-01-26 02:29:00,
2013-01-25 21:45:00,22.9,21.0,30.03,West,265,4.0,-999.0,91,-99.99,,,0.00,weatherlink.com 1.10,2013-01-26 02:45:00,
2013-01-25 22:00:00,23.1,21.0,30.02,West,265,5.0,-999.0,91,-99.99,,,0.00,weatherlink.com 1.10,2013-01-26 03:00:00,
2013-01-25 22:15:00,23.5,21.0,30.01,West,281,3.0,-999.0,91,-99.99,,,0.00,weatherlink.com 1.10,2013-01-26 03:15:00,
2013-01-25 22:30:00,23.7,21.0,30.00,West,275,2.0,-999.0,90,-99.99,,,0.00,weatherlink.com 1.10,2013-01-26 03:30:00,
2013-01-25 22:45:00,23.9,21.0,30.01,West,279,9.0,-999.0,89,-99.99,,,0.00,weatherlink.com 1.10,2013-01-26 03:45:00,
2013-01-25 23:00:00,24.3,21.0,30.01,NW,308,6.0,-999.0,87,-99.99,,,0.00,weatherlink.com 1.10,2013-01-26 04:00:00,
2013-01-25 23:15:00,23.7,20.0,30.01,NNW,332,6.0,-999.0,86,-99.99,,,0.00,weatherlink.com 1.10,2013-01-26 04:15:00,
2013-01-25 23:30:00,23.1,20.0,30.01,NNW,341,9.0,-999.0,87,-99.99,,,0.00,weatherlink.com 1.10,2013-01-26 04:30:00,
2013-01-25 23:45:00,22.6,20.0,30.01,NNW,347,10.0,-999.0,88,-99.99,,,0.00,weatherlink.com 1.10,2013-01-26 04:45:00,